• Join FlightAware (Why Join?)
  • Login
  • US Flag 
06:42AM EDT


 

Airport Tracker/Info


-or-


 

Live Flight TrackerFlight Track Log ✈ CTL22 ✈ 17-Jul-2013 ✈ KBKL - KGRR

Flight Track Log - Related Links

Times and Time Zones

All times are in EDT time to prevent confusion due to time zone crossing. See the CTL22 flight status page for this flight to view local times or setup timezone preferences in your user account.

Time Position Orientation Groundspeed Altitude Reporting Facility
EDT Latitude Longitude Course Direction KTS MPH feet Rate Location/Type
09:36PM 41.7733 -82.0561 304° West 158 182 6,000  Level Cleveland Center
09:37PM 41.7956 -82.1011 304° West 163 188 6,000  Level Cleveland Center
09:38PM 41.8219 -82.1575 302° West 163 188 6,100  Climbing Cleveland Center
09:39PM 41.8422 -82.2081 298° West 163 188 6,100 -60 Level Cleveland Center
09:40PM 41.8644 -82.2589 300° West 163 188 6,000 -60 Descending Cleveland Center
09:41PM 41.8822 -82.3122 294° West 163 188 6,000  Level Cleveland Center
09:42PM 41.9022 -82.3658 297° West 163 188 6,000  Level Cleveland Center
09:43PM 41.9222 -82.4167 298° West 158 182 6,000  Level Cleveland Center
09:44PM 41.9403 -82.4703 294° West 158 182 6,000  Level Cleveland Center
09:45PM 41.9581 -82.5239 294° West 158 182 6,000  Level Cleveland Center
09:46PM 41.9800 -82.5775 299° West 158 182 6,000  Level Cleveland Center
09:47PM 42.0022 -82.6286 300° West 158 182 6,000  Level Cleveland Center
09:48PM 42.0219 -82.6822 296° West 158 182 6,000  Level Cleveland Center
09:49PM 42.0419 -82.7361 297° West 158 182 6,000  Level Cleveland Center
09:50PM 42.0597 -82.7897 294° West 158 182 6,000  Level Cleveland Center
09:51PM 42.0753 -82.8464 290° West 158 182 6,000  Level Cleveland Center
09:52PM 42.0950 -82.9031 295° West 158 182 6,000  Level Cleveland Center
09:53PM 42.1106 -82.9567 291° West 158 182 6,000  Level Cleveland Center
09:54PM 42.1225 -82.9822 302° West 158 182 6,000  Level Cleveland Center
09:54PM 42.1303 -83.0078 292° West 158 182 6,000  Level Cleveland Center
09:55PM 42.1422 -83.0392 297° West 158 182 6,000  Level Cleveland Center
09:56PM 42.1597 -83.0903 295° West 163 188 6,000  Level Cleveland Center
09:57PM 42.1814 -83.1556 294° West 160 184 6,000  Level Cleveland Center
09:58PM 42.1947 -83.2008 292° West 158 182 6,000  Level Cleveland Center
09:59PM 42.2142 -83.2606 294° West 160 184 6,000  Level Cleveland Center
10:00PM 42.2339 -83.3119 297° West 159 183 6,000  Level Cleveland Center
10:01PM 42.2514 -83.3686 293° West 159 183 6,000  Level Cleveland Center
10:02PM 42.2708 -83.4231 296° West 162 186 6,000  Level Cleveland Center
10:03PM 42.2883 -83.4769 294° West 162 186 6,000  Level Cleveland Center
10:04PM 42.3056 -83.5342 292° West 159 183 6,000  Level Cleveland Center
10:05PM 42.3231 -83.5825 296° West 158 182 6,000  Level Cleveland Center
10:06PM 42.3422 -83.6453 292° West 156 180 6,000  Level Cleveland Center
10:07PM 42.3556 -83.6908 292° West 158 182 6,000  Level Cleveland Center
10:08PM 42.3747 -83.7536 292° West 159 183 6,000  Level Cleveland Center
10:10PM 42.4147 -83.8747 294° West 161 185 6,100  Climbing Chicago Center
10:11PM 42.4303 -83.9278 292° West 160 184 6,100  Level Chicago Center
10:12PM 42.4442 -83.9828 289° West 154 177 6,100  Level Chicago Center
10:13PM 42.4594 -84.0381 291° West 156 180 6,100  Level Chicago Center
10:14PM 42.4781 -84.0919 295° West 157 181 6,100 -60 Level Chicago Center
10:15PM 42.5003 -84.1572 295° West 157 181 6,000 -60 Descending Chicago Center
10:17PM 42.5161 -84.2122 291° West 157 181 6,000 -60 Level Chicago Center
10:18PM 42.5331 -84.2669 293° West 157 181 5,900 -60 Descending Chicago Center
10:19PM 42.5503 -84.3208 293° West 157 181 5,900  Level Chicago Center
10:20PM 42.5647 -84.3758 290° West 156 180 6,000  Climbing Chicago Center
10:21PM 42.5803 -84.4306 291° West 156 180 6,000  Level Chicago Center
10:22PM 42.5958 -84.4856 291° West 157 181 6,000  Level Chicago Center
10:23PM 42.6094 -84.5414 288° West 156 180 6,000  Level Chicago Center
10:24PM 42.6256 -84.5950 292° West 155 178 6,000  Level Chicago Center
10:25PM 42.6444 -84.6606 291° West 155 178 6,000  Level Chicago Center
10:26PM 42.6594 -84.7161 290° West 156 180 6,000  Level Chicago Center
10:27PM 42.6750 -84.7719 291° West 158 182 6,000  Level Chicago Center
10:28PM 42.6900 -84.8275 290° West 158 182 6,000  Level Chicago Center
10:29PM 42.7044 -84.8831 290° West 156 180 6,000  Level Chicago Center
10:30PM 42.7192 -84.9381 290° West 156 180 6,000  Level Chicago Center
10:31PM 42.7350 -84.9922 292° West 156 180 6,000  Level Chicago Center
10:32PM 42.7517 -85.0472 292° West 157 181 6,000 -300 Level Chicago Center
10:33PM 42.7689 -85.1044 292° West 161 185 5,500 -600 Descending Chicago Center
10:34PM 42.7875 -85.1783 289° West 170 196 4,800 -660 Descending Chicago Center
10:35PM 42.8028 -85.2389 289° West 171 197 4,200 -660 Descending Chicago Center
10:36PM 42.8172 -85.3031 287° West 174 200 3,500 -720 Descending Chicago Center
10:37PM 42.8356 -85.3633 293° West 174 200 2,800 -720 Descending Chicago Center
10:38PM 42.8558 -85.4206 296° West 172 198 2,100 -780 Descending Chicago Center
10:39PM 42.8744 -85.4750 295° West 166 191 1,300 -600 Descending Chicago Center
10:40PM 42.8831 -85.5192 285° West 139 160 900 -420 Descending Chicago Center
10:42PM 42.8808 -85.5228 270° West  Level Estimated